Terminal Aerodrome Forecast
Issued by NWS

Home | Current Version | Previous Version | Text Only | Print | Product List | Glossary On
Versions: 1 2 3 4 5 6 7 8 9 10 11 12 13 14 15 16 17
000
FTAK31 PANC 250949 AAB
TAFAAQ
TAF AMD
PAAQ 250949Z 2510/2606 VRB03KT 5SM -SN BR OVC035
      TEMPO 2510/2512 2SM -SN BR
     FM251200 VRB03KT P6SM SCT030 OVC050=

USA.gov is the U.S. government's official web portal to all federal, state and local government web resources and services.